sensor_id;sensor_type;location;lat;lon;timestamp;temperature;humidity
27940;DHT22;15275;51.716;14.324;2023-04-03T00:00:29;5.60;74.60
27940;DHT22;15275;51.716;14.324;2023-04-03T00:02:55;5.50;74.30
27940;DHT22;15275;51.716;14.324;2023-04-03T00:05:21;5.50;74.70
27940;DHT22;15275;51.716;14.324;2023-04-03T00:07:47;5.50;74.40
27940;DHT22;15275;51.716;14.324;2023-04-03T00:10:15;5.50;75.40
27940;DHT22;15275;51.716;14.324;2023-04-03T00:12:41;5.40;74.10
27940;DHT22;15275;51.716;14.324;2023-04-03T00:15:08;5.40;75.50
27940;DHT22;15275;51.716;14.324;2023-04-03T00:17:34;5.30;75.60
27940;DHT22;15275;51.716;14.324;2023-04-03T00:19:59;5.30;74.80
27940;DHT22;15275;51.716;14.324;2023-04-03T00:22:25;5.30;76.10
27940;DHT22;15275;51.716;14.324;2023-04-03T00:24:54;5.30;76.00
27940;DHT22;15275;51.716;14.324;2023-04-03T00:27:20;5.20;75.20
27940;DHT22;15275;51.716;14.324;2023-04-03T00:29:46;5.20;74.20
27940;DHT22;15275;51.716;14.324;2023-04-03T00:32:12;5.20;76.20
27940;DHT22;15275;51.716;14.324;2023-04-03T00:34:38;5.10;74.80
27940;DHT22;15275;51.716;14.324;2023-04-03T00:37:04;5.10;75.50
27940;DHT22;15275;51.716;14.324;2023-04-03T00:39:30;5.00;75.30
27940;DHT22;15275;51.716;14.324;2023-04-03T00:41:56;5.00;75.40
27940;DHT22;15275;51.716;14.324;2023-04-03T00:47:02;4.90;74.70
27940;DHT22;15275;51.716;14.324;2023-04-03T00:49:29;4.90;75.40
27940;DHT22;15275;51.716;14.324;2023-04-03T00:51:56;4.80;75.20
27940;DHT22;15275;51.716;14.324;2023-04-03T00:54:23;4.70;75.50
27940;DHT22;15275;51.716;14.324;2023-04-03T00:56:51;4.70;75.10
27940;DHT22;15275;51.716;14.324;2023-04-03T00:59:25;4.60;75.60
27940;DHT22;15275;51.716;14.324;2023-04-03T01:01:55;4.60;75.60
27940;DHT22;15275;51.716;14.324;2023-04-03T01:07:23;4.50;75.60
27940;DHT22;15275;51.716;14.324;2023-04-03T01:09:56;4.50;75.20
27940;DHT22;15275;51.716;14.324;2023-04-03T01:12:33;4.40;76.10
27940;DHT22;15275;51.716;14.324;2023-04-03T01:15:16;4.40;75.90
27940;DHT22;15275;51.716;14.324;2023-04-03T01:17:47;4.30;75.80
27940;DHT22;15275;51.716;14.324;2023-04-03T01:25:51;4.20;75.90
27940;DHT22;15275;51.716;14.324;2023-04-03T01:33:55;4.10;75.70
27940;DHT22;15275;51.716;14.324;2023-04-03T01:36:24;4.10;76.10
27940;DHT22;15275;51.716;14.324;2023-04-03T01:38:52;4.00;76.50
27940;DHT22;15275;51.716;14.324;2023-04-03T01:41:19;4.00;76.80
27940;DHT22;15275;51.716;14.324;2023-04-03T01:43:47;4.00;77.20
27940;DHT22;15275;51.716;14.324;2023-04-03T01:46:15;4.00;76.70
27940;DHT22;15275;51.716;14.324;2023-04-03T01:48:41;3.90;77.10
27940;DHT22;15275;51.716;14.324;2023-04-03T01:51:07;3.90;76.70
27940;DHT22;15275;51.716;14.324;2023-04-03T01:53:33;3.90;76.70
27940;DHT22;15275;51.716;14.324;2023-04-03T01:55:59;3.80;77.20
27940;DHT22;15275;51.716;14.324;2023-04-03T01:58:25;3.80;77.30
27940;DHT22;15275;51.716;14.324;2023-04-03T02:00:51;3.80;77.50
27940;DHT22;15275;51.716;14.324;2023-04-03T02:03:17;3.80;77.50
27940;DHT22;15275;51.716;14.324;2023-04-03T02:05:44;3.80;77.70
27940;DHT22;15275;51.716;14.324;2023-04-03T02:08:10;3.70;77.60
27940;DHT22;15275;51.716;14.324;2023-04-03T02:10:36;3.70;77.10
27940;DHT22;15275;51.716;14.324;2023-04-03T02:13:02;3.70;78.20
27940;DHT22;15275;51.716;14.324;2023-04-03T02:15:28;3.70;78.00
27940;DHT22;15275;51.716;14.324;2023-04-03T02:17:54;3.60;78.00
27940;DHT22;15275;51.716;14.324;2023-04-03T02:20:20;3.60;77.70
27940;DHT22;15275;51.716;14.324;2023-04-03T02:22:46;3.60;77.40
27940;DHT22;15275;51.716;14.324;2023-04-03T02:25:12;3.60;77.80
27940;DHT22;15275;51.716;14.324;2023-04-03T02:27:38;3.60;78.10
27940;DHT22;15275;51.716;14.324;2023-04-03T02:30:05;3.50;78.10
27940;DHT22;15275;51.716;14.324;2023-04-03T02:32:32;3.50;78.00
27940;DHT22;15275;51.716;14.324;2023-04-03T02:34:58;3.50;78.30
27940;DHT22;15275;51.716;14.324;2023-04-03T02:37:24;3.50;78.50
27940;DHT22;15275;51.716;14.324;2023-04-03T02:39:50;3.40;78.40
27940;DHT22;15275;51.716;14.324;2023-04-03T02:42:15;3.40;78.20
27940;DHT22;15275;51.716;14.324;2023-04-03T02:44:42;3.40;78.80
27940;DHT22;15275;51.716;14.324;2023-04-03T02:47:07;3.30;78.60
27940;DHT22;15275;51.716;14.324;2023-04-03T02:49:33;3.30;78.40
27940;DHT22;15275;51.716;14.324;2023-04-03T02:51:59;3.30;78.60
27940;DHT22;15275;51.716;14.324;2023-04-03T02:54:25;3.30;78.50
27940;DHT22;15275;51.716;14.324;2023-04-03T02:56:54;3.20;79.00
27940;DHT22;15275;51.716;14.324;2023-04-03T02:59:20;3.20;78.40
27940;DHT22;15275;51.716;14.324;2023-04-03T03:01:46;3.20;78.50
27940;DHT22;15275;51.716;14.324;2023-04-03T03:04:11;3.10;79.00
27940;DHT22;15275;51.716;14.324;2023-04-03T03:06:37;3.10;78.80
27940;DHT22;15275;51.716;14.324;2023-04-03T03:09:03;3.10;78.50
27940;DHT22;15275;51.716;14.324;2023-04-03T03:11:31;3.10;79.30
27940;DHT22;15275;51.716;14.324;2023-04-03T03:13:57;3.10;78.90
27940;DHT22;15275;51.716;14.324;2023-04-03T03:16:23;3.00;79.30
27940;DHT22;15275;51.716;14.324;2023-04-03T03:18:49;3.00;79.60
27940;DHT22;15275;51.716;14.324;2023-04-03T03:21:15;3.00;79.70
27940;DHT22;15275;51.716;14.324;2023-04-03T03:23:41;3.00;79.50
27940;DHT22;15275;51.716;14.324;2023-04-03T03:26:09;3.00;79.50
27940;DHT22;15275;51.716;14.324;2023-04-03T03:28:36;2.90;79.20
27940;DHT22;15275;51.716;14.324;2023-04-03T03:31:03;2.90;79.30
27940;DHT22;15275;51.716;14.324;2023-04-03T03:33:30;2.90;79.80
27940;DHT22;15275;51.716;14.324;2023-04-03T03:35:56;2.90;79.60
27940;DHT22;15275;51.716;14.324;2023-04-03T03:38:22;2.90;79.20
27940;DHT22;15275;51.716;14.324;2023-04-03T03:40:49;2.90;79.20
27940;DHT22;15275;51.716;14.324;2023-04-03T03:43:16;2.90;78.90
27940;DHT22;15275;51.716;14.324;2023-04-03T03:45:42;2.90;79.30
27940;DHT22;15275;51.716;14.324;2023-04-03T03:48:09;2.80;79.30
27940;DHT22;15275;51.716;14.324;2023-04-03T03:50:35;2.80;79.20
27940;DHT22;15275;51.716;14.324;2023-04-03T03:53:01;2.80;79.40
27940;DHT22;15275;51.716;14.324;2023-04-03T03:55:27;2.80;79.50
27940;DHT22;15275;51.716;14.324;2023-04-03T03:57:53;2.80;79.40
27940;DHT22;15275;51.716;14.324;2023-04-03T04:00:20;2.80;79.40
27940;DHT22;15275;51.716;14.324;2023-04-03T04:02:46;2.80;79.60
27940;DHT22;15275;51.716;14.324;2023-04-03T04:05:12;2.80;79.30
27940;DHT22;15275;51.716;14.324;2023-04-03T04:07:38;2.80;79.00
27940;DHT22;15275;51.716;14.324;2023-04-03T04:10:04;2.70;79.20
27940;DHT22;15275;51.716;14.324;2023-04-03T04:12:30;2.70;79.70
27940;DHT22;15275;51.716;14.324;2023-04-03T04:14:56;2.70;79.90
27940;DHT22;15275;51.716;14.324;2023-04-03T04:17:22;2.70;79.20
27940;DHT22;15275;51.716;14.324;2023-04-03T04:19:48;2.70;79.10
27940;DHT22;15275;51.716;14.324;2023-04-03T04:22:14;2.70;79.00
27940;DHT22;15275;51.716;14.324;2023-04-03T04:24:39;2.70;79.30
27940;DHT22;15275;51.716;14.324;2023-04-03T04:27:05;2.70;79.20
27940;DHT22;15275;51.716;14.324;2023-04-03T04:29:31;2.70;79.20
27940;DHT22;15275;51.716;14.324;2023-04-03T04:32:01;2.70;79.60
27940;DHT22;15275;51.716;14.324;2023-04-03T04:34:28;2.70;79.60
27940;DHT22;15275;51.716;14.324;2023-04-03T04:36:55;2.60;79.70
27940;DHT22;15275;51.716;14.324;2023-04-03T04:39:20;2.70;79.80
27940;DHT22;15275;51.716;14.324;2023-04-03T04:41:46;2.60;80.00
27940;DHT22;15275;51.716;14.324;2023-04-03T04:44:12;2.70;79.80
27940;DHT22;15275;51.716;14.324;2023-04-03T04:46:38;2.60;79.70
27940;DHT22;15275;51.716;14.324;2023-04-03T04:49:04;2.70;80.30
27940;DHT22;15275;51.716;14.324;2023-04-03T04:51:30;2.70;80.10
27940;DHT22;15275;51.716;14.324;2023-04-03T04:53:56;2.60;80.20
27940;DHT22;15275;51.716;14.324;2023-04-03T04:56:21;2.70;79.90
27940;DHT22;15275;51.716;14.324;2023-04-03T04:58:47;2.70;80.10
27940;DHT22;15275;51.716;14.324;2023-04-03T05:01:13;2.70;79.80
27940;DHT22;15275;51.716;14.324;2023-04-03T05:03:39;2.70;80.20
27940;DHT22;15275;51.716;14.324;2023-04-03T05:06:06;2.70;79.90
27940;DHT22;15275;51.716;14.324;2023-04-03T05:08:32;2.70;80.00
27940;DHT22;15275;51.716;14.324;2023-04-03T05:10:58;2.70;80.00
27940;DHT22;15275;51.716;14.324;2023-04-03T05:13:24;2.80;80.70
27940;DHT22;15275;51.716;14.324;2023-04-03T05:15:50;2.80;80.30
27940;DHT22;15275;51.716;14.324;2023-04-03T05:18:16;2.80;80.00
27940;DHT22;15275;51.716;14.324;2023-04-03T05:20:41;2.80;80.40
27940;DHT22;15275;51.716;14.324;2023-04-03T05:23:09;2.80;80.10
27940;DHT22;15275;51.716;14.324;2023-04-03T05:25:38;2.90;80.10
27940;DHT22;15275;51.716;14.324;2023-04-03T05:28:04;2.90;80.30
27940;DHT22;15275;51.716;14.324;2023-04-03T05:30:30;3.00;80.40
27940;DHT22;15275;51.716;14.324;2023-04-03T05:32:56;3.00;80.00
27940;DHT22;15275;51.716;14.324;2023-04-03T05:35:22;3.00;80.10
27940;DHT22;15275;51.716;14.324;2023-04-03T05:37:48;3.10;80.10
27940;DHT22;15275;51.716;14.324;2023-04-03T05:40:14;3.10;80.30
27940;DHT22;15275;51.716;14.324;2023-04-03T05:42:40;3.20;79.90
27940;DHT22;15275;51.716;14.324;2023-04-03T05:45:06;3.20;80.30
27940;DHT22;15275;51.716;14.324;2023-04-03T05:47:32;3.30;80.40
27940;DHT22;15275;51.716;14.324;2023-04-03T05:49:58;3.40;81.20
27940;DHT22;15275;51.716;14.324;2023-04-03T05:52:28;3.40;80.70
27940;DHT22;15275;51.716;14.324;2023-04-03T05:54:56;3.50;80.00
27940;DHT22;15275;51.716;14.324;2023-04-03T05:57:22;3.60;80.70
27940;DHT22;15275;51.716;14.324;2023-04-03T05:59:48;3.60;79.80
27940;DHT22;15275;51.716;14.324;2023-04-03T06:02:17;3.60;79.80
27940;DHT22;15275;51.716;14.324;2023-04-03T06:04:45;3.70;79.70
27940;DHT22;15275;51.716;14.324;2023-04-03T06:07:16;3.80;79.50
27940;DHT22;15275;51.716;14.324;2023-04-03T06:09:43;3.80;80.40
27940;DHT22;15275;51.716;14.324;2023-04-03T06:12:10;3.90;80.10
27940;DHT22;15275;51.716;14.324;2023-04-03T06:14:37;4.00;80.50
27940;DHT22;15275;51.716;14.324;2023-04-03T06:17:03;4.00;79.20
27940;DHT22;15275;51.716;14.324;2023-04-03T06:19:29;4.00;79.50
27940;DHT22;15275;51.716;14.324;2023-04-03T06:21:55;4.10;79.60
27940;DHT22;15275;51.716;14.324;2023-04-03T06:24:22;4.20;80.00
27940;DHT22;15275;51.716;14.324;2023-04-03T06:26:50;4.20;79.30
27940;DHT22;15275;51.716;14.324;2023-04-03T06:29:17;4.30;79.50
27940;DHT22;15275;51.716;14.324;2023-04-03T06:31:44;4.40;79.40
27940;DHT22;15275;51.716;14.324;2023-04-03T06:34:10;4.40;80.40
27940;DHT22;15275;51.716;14.324;2023-04-03T06:36:37;4.50;79.50
27940;DHT22;15275;51.716;14.324;2023-04-03T06:39:04;4.50;78.80
27940;DHT22;15275;51.716;14.324;2023-04-03T06:41:30;4.60;79.60
27940;DHT22;15275;51.716;14.324;2023-04-03T06:43:57;4.70;78.70
27940;DHT22;15275;51.716;14.324;2023-04-03T06:46:24;4.70;79.20
27940;DHT22;15275;51.716;14.324;2023-04-03T06:48:51;4.80;80.50
27940;DHT22;15275;51.716;14.324;2023-04-03T06:51:28;4.90;78.70
27940;DHT22;15275;51.716;14.324;2023-04-03T06:53:58;5.00;78.10
27940;DHT22;15275;51.716;14.324;2023-04-03T06:56:25;5.00;78.30
27940;DHT22;15275;51.716;14.324;2023-04-03T06:58:56;5.10;77.60
27940;DHT22;15275;51.716;14.324;2023-04-03T07:01:27;5.20;76.60
27940;DHT22;15275;51.716;14.324;2023-04-03T07:03:54;5.20;76.40
27940;DHT22;15275;51.716;14.324;2023-04-03T07:06:20;5.30;76.20
27940;DHT22;15275;51.716;14.324;2023-04-03T07:08:47;5.30;76.40
27940;DHT22;15275;51.716;14.324;2023-04-03T07:11:15;5.30;77.00
27940;DHT22;15275;51.716;14.324;2023-04-03T07:13:41;5.40;77.10
27940;DHT22;15275;51.716;14.324;2023-04-03T07:16:08;5.50;77.30
27940;DHT22;15275;51.716;14.324;2023-04-03T07:18:34;5.50;75.80
27940;DHT22;15275;51.716;14.324;2023-04-03T07:21:01;5.60;77.50
27940;DHT22;15275;51.716;14.324;2023-04-03T07:23:27;5.60;76.70
27940;DHT22;15275;51.716;14.324;2023-04-03T07:25:53;5.70;77.30
27940;DHT22;15275;51.716;14.324;2023-04-03T07:28:21;5.80;78.30
27940;DHT22;15275;51.716;14.324;2023-04-03T07:31:01;5.80;77.20
27940;DHT22;15275;51.716;14.324;2023-04-03T07:33:32;5.90;76.60
27940;DHT22;15275;51.716;14.324;2023-04-03T07:35:58;6.00;74.90
27940;DHT22;15275;51.716;14.324;2023-04-03T07:38:25;6.10;75.10
27940;DHT22;15275;51.716;14.324;2023-04-03T07:40:51;6.10;74.40
27940;DHT22;15275;51.716;14.324;2023-04-03T07:43:18;6.10;74.90
27940;DHT22;15275;51.716;14.324;2023-04-03T07:45:46;6.20;74.80
27940;DHT22;15275;51.716;14.324;2023-04-03T07:48:15;6.20;74.80
27940;DHT22;15275;51.716;14.324;2023-04-03T07:50:43;6.20;75.30
27940;DHT22;15275;51.716;14.324;2023-04-03T07:53:10;6.20;74.20
27940;DHT22;15275;51.716;14.324;2023-04-03T07:55:36;6.20;73.80
27940;DHT22;15275;51.716;14.324;2023-04-03T07:58:09;6.20;73.60
27940;DHT22;15275;51.716;14.324;2023-04-03T08:00:36;6.20;74.00
27940;DHT22;15275;51.716;14.324;2023-04-03T08:03:03;6.20;74.20
27940;DHT22;15275;51.716;14.324;2023-04-03T08:05:29;6.20;74.80
27940;DHT22;15275;51.716;14.324;2023-04-03T08:07:55;6.30;75.00
27940;DHT22;15275;51.716;14.324;2023-04-03T08:10:21;6.30;76.40
27940;DHT22;15275;51.716;14.324;2023-04-03T08:12:47;6.40;76.70
27940;DHT22;15275;51.716;14.324;2023-04-03T08:15:14;6.40;77.60
27940;DHT22;15275;51.716;14.324;2023-04-03T08:17:40;6.50;75.70
27940;DHT22;15275;51.716;14.324;2023-04-03T08:20:07;6.60;74.60
27940;DHT22;15275;51.716;14.324;2023-04-03T08:22:34;6.70;76.10
27940;DHT22;15275;51.716;14.324;2023-04-03T08:24:59;6.80;77.10
27940;DHT22;15275;51.716;14.324;2023-04-03T08:27:27;6.80;76.60
27940;DHT22;15275;51.716;14.324;2023-04-03T08:29:54;6.90;76.10
27940;DHT22;15275;51.716;14.324;2023-04-03T08:32:20;7.00;78.40
27940;DHT22;15275;51.716;14.324;2023-04-03T08:34:46;7.10;77.80
27940;DHT22;15275;51.716;14.324;2023-04-03T08:37:12;7.30;77.70
27940;DHT22;15275;51.716;14.324;2023-04-03T08:39:38;7.40;78.30
27940;DHT22;15275;51.716;14.324;2023-04-03T08:42:16;7.50;77.20
27940;DHT22;15275;51.716;14.324;2023-04-03T08:45:01;7.70;74.10
27940;DHT22;15275;51.716;14.324;2023-04-03T08:50:29;7.80;75.80
27940;DHT22;15275;51.716;14.324;2023-04-03T08:52:58;7.90;75.70
27940;DHT22;15275;51.716;14.324;2023-04-03T08:55:32;7.90;75.70
27940;DHT22;15275;51.716;14.324;2023-04-03T08:58:40;8.00;74.90
27940;DHT22;15275;51.716;14.324;2023-04-03T09:01:03;8.00;75.60
27940;DHT22;15275;51.716;14.324;2023-04-03T09:03:32;8.10;75.50
27940;DHT22;15275;51.716;14.324;2023-04-03T09:06:13;8.20;76.10
27940;DHT22;15275;51.716;14.324;2023-04-03T09:08:49;8.20;75.80
27940;DHT22;15275;51.716;14.324;2023-04-03T09:11:34;8.20;73.10
27940;DHT22;15275;51.716;14.324;2023-04-03T09:14:17;8.30;75.60
27940;DHT22;15275;51.716;14.324;2023-04-03T09:16:55;8.30;74.60
27940;DHT22;15275;51.716;14.324;2023-04-03T09:22:09;8.30;75.80
27940;DHT22;15275;51.716;14.324;2023-04-03T09:24:58;8.30;74.70
27940;DHT22;15275;51.716;14.324;2023-04-03T09:27:28;8.30;74.90
27940;DHT22;15275;51.716;14.324;2023-04-03T09:29:55;8.40;74.90
27940;DHT22;15275;51.716;14.324;2023-04-03T09:32:30;8.40;73.70
27940;DHT22;15275;51.716;14.324;2023-04-03T09:37:50;8.50;71.00
27940;DHT22;15275;51.716;14.324;2023-04-03T09:43:00;8.60;72.00
27940;DHT22;15275;51.716;14.324;2023-04-03T09:45:35;8.60;71.50
27940;DHT22;15275;51.716;14.324;2023-04-03T09:50:35;8.50;72.40
27940;DHT22;15275;51.716;14.324;2023-04-03T09:53:07;8.60;72.80
27940;DHT22;15275;51.716;14.324;2023-04-03T09:55:43;8.60;71.90
27940;DHT22;15275;51.716;14.324;2023-04-03T10:01:06;8.60;68.60
27940;DHT22;15275;51.716;14.324;2023-04-03T10:04:22;8.50;69.70
27940;DHT22;15275;51.716;14.324;2023-04-03T10:06:51;8.50;69.10
27940;DHT22;15275;51.716;14.324;2023-04-03T10:12:08;8.50;71.30
27940;DHT22;15275;51.716;14.324;2023-04-03T10:14:57;8.50;68.20
27940;DHT22;15275;51.716;14.324;2023-04-03T10:17:56;8.50;67.30
27940;DHT22;15275;51.716;14.324;2023-04-03T10:20:43;8.50;66.70
27940;DHT22;15275;51.716;14.324;2023-04-03T10:23:50;8.60;67.40
27940;DHT22;15275;51.716;14.324;2023-04-03T10:29:40;8.70;70.50
27940;DHT22;15275;51.716;14.324;2023-04-03T10:46:59;9.20;69.90
27940;DHT22;15275;51.716;14.324;2023-04-03T10:52:37;9.30;67.80
27940;DHT22;15275;51.716;14.324;2023-04-03T10:55:34;9.20;67.90
27940;DHT22;15275;51.716;14.324;2023-04-03T10:58:03;9.20;66.00
27940;DHT22;15275;51.716;14.324;2023-04-03T11:00:44;9.20;68.90
27940;DHT22;15275;51.716;14.324;2023-04-03T11:03:38;9.30;70.40
27940;DHT22;15275;51.716;14.324;2023-04-03T11:06:09;9.30;67.90
27940;DHT22;15275;51.716;14.324;2023-04-03T11:11:24;9.40;67.10
27940;DHT22;15275;51.716;14.324;2023-04-03T11:16:43;9.40;65.40
27940;DHT22;15275;51.716;14.324;2023-04-03T11:19:22;9.30;66.50
27940;DHT22;15275;51.716;14.324;2023-04-03T11:22:31;9.30;66.40
27940;DHT22;15275;51.716;14.324;2023-04-03T11:30:30;9.30;65.70
27940;DHT22;15275;51.716;14.324;2023-04-03T11:33:20;9.30;66.50
27940;DHT22;15275;51.716;14.324;2023-04-03T11:36:04;9.30;65.60
27940;DHT22;15275;51.716;14.324;2023-04-03T11:38:35;9.30;66.10
27940;DHT22;15275;51.716;14.324;2023-04-03T11:41:06;9.30;64.30
27940;DHT22;15275;51.716;14.324;2023-04-03T11:43:34;9.20;66.20
27940;DHT22;15275;51.716;14.324;2023-04-03T11:46:06;9.20;67.00
27940;DHT22;15275;51.716;14.324;2023-04-03T11:48:42;9.20;68.40
27940;DHT22;15275;51.716;14.324;2023-04-03T11:53:40;9.30;65.70
27940;DHT22;15275;51.716;14.324;2023-04-03T12:04:22;9.40;66.90
27940;DHT22;15275;51.716;14.324;2023-04-03T12:06:59;9.40;67.70
27940;DHT22;15275;51.716;14.324;2023-04-03T12:12:41;9.50;65.00
27940;DHT22;15275;51.716;14.324;2023-04-03T12:17:49;9.50;64.10
27940;DHT22;15275;51.716;14.324;2023-04-03T12:20:52;9.50;67.00
27940;DHT22;15275;51.716;14.324;2023-04-03T12:28:45;9.60;67.00
27940;DHT22;15275;51.716;14.324;2023-04-03T12:31:12;9.60;66.10
27940;DHT22;15275;51.716;14.324;2023-04-03T12:33:58;9.60;66.00
27940;DHT22;15275;51.716;14.324;2023-04-03T12:36:37;9.60;64.50
27940;DHT22;15275;51.716;14.324;2023-04-03T12:39:17;9.60;64.50
27940;DHT22;15275;51.716;14.324;2023-04-03T12:47:49;9.60;63.40
27940;DHT22;15275;51.716;14.324;2023-04-03T12:50:36;9.60;64.40
27940;DHT22;15275;51.716;14.324;2023-04-03T12:53:44;9.60;61.10
27940;DHT22;15275;51.716;14.324;2023-04-03T12:55:57;9.60;63.30
27940;DHT22;15275;51.716;14.324;2023-04-03T12:58:26;9.60;65.00
27940;DHT22;15275;51.716;14.324;2023-04-03T13:01:11;9.60;63.80
27940;DHT22;15275;51.716;14.324;2023-04-03T13:03:40;9.60;63.70
27940;DHT22;15275;51.716;14.324;2023-04-03T13:06:24;9.60;65.20
27940;DHT22;15275;51.716;14.324;2023-04-03T13:08:56;9.60;63.60
27940;DHT22;15275;51.716;14.324;2023-04-03T13:11:27;9.60;60.40
27940;DHT22;15275;51.716;14.324;2023-04-03T13:14:05;9.70;63.70
27940;DHT22;15275;51.716;14.324;2023-04-03T13:16:39;9.60;64.10
27940;DHT22;15275;51.716;14.324;2023-04-03T13:19:16;9.60;63.80
27940;DHT22;15275;51.716;14.324;2023-04-03T13:21:43;9.60;63.00
27940;DHT22;15275;51.716;14.324;2023-04-03T13:24:10;9.50;63.70
27940;DHT22;15275;51.716;14.324;2023-04-03T13:26:36;9.60;66.10
27940;DHT22;15275;51.716;14.324;2023-04-03T13:29:06;9.50;65.10
27940;DHT22;15275;51.716;14.324;2023-04-03T13:31:40;9.50;62.40
27940;DHT22;15275;51.716;14.324;2023-04-03T13:34:27;9.50;64.00
27940;DHT22;15275;51.716;14.324;2023-04-03T13:36:57;9.40;63.30
27940;DHT22;15275;51.716;14.324;2023-04-03T13:41:56;9.40;65.00
27940;DHT22;15275;51.716;14.324;2023-04-03T13:44:34;9.40;63.90
27940;DHT22;15275;51.716;14.324;2023-04-03T13:47:15;9.30;62.00
27940;DHT22;15275;51.716;14.324;2023-04-03T13:50:31;9.30;63.40
27940;DHT22;15275;51.716;14.324;2023-04-03T13:52:45;9.30;62.70
27940;DHT22;15275;51.716;14.324;2023-04-03T13:55:37;9.30;64.60
27940;DHT22;15275;51.716;14.324;2023-04-03T13:58:28;9.30;66.20
27940;DHT22;15275;51.716;14.324;2023-04-03T14:01:14;9.30;66.80
27940;DHT22;15275;51.716;14.324;2023-04-03T14:03:52;9.30;62.90
27940;DHT22;15275;51.716;14.324;2023-04-03T14:06:23;9.40;65.40
27940;DHT22;15275;51.716;14.324;2023-04-03T14:08:50;9.40;66.90
27940;DHT22;15275;51.716;14.324;2023-04-03T14:11:28;9.40;65.60
27940;DHT22;15275;51.716;14.324;2023-04-03T14:13:58;9.50;64.30
27940;DHT22;15275;51.716;14.324;2023-04-03T14:16:29;9.50;66.00
27940;DHT22;15275;51.716;14.324;2023-04-03T14:18:56;9.50;65.40
27940;DHT22;15275;51.716;14.324;2023-04-03T14:21:23;9.50;65.40
27940;DHT22;15275;51.716;14.324;2023-04-03T14:23:49;9.50;65.40
27940;DHT22;15275;51.716;14.324;2023-04-03T14:26:23;9.50;63.20
27940;DHT22;15275;51.716;14.324;2023-04-03T14:28:51;9.50;62.20
27940;DHT22;15275;51.716;14.324;2023-04-03T14:31:19;9.50;62.50
27940;DHT22;15275;51.716;14.324;2023-04-03T14:33:46;9.50;63.30
27940;DHT22;15275;51.716;14.324;2023-04-03T14:36:14;9.50;63.60
27940;DHT22;15275;51.716;14.324;2023-04-03T14:38:43;9.50;64.20
27940;DHT22;15275;51.716;14.324;2023-04-03T14:41:14;9.50;65.60
27940;DHT22;15275;51.716;14.324;2023-04-03T14:43:41;9.50;65.10
27940;DHT22;15275;51.716;14.324;2023-04-03T14:46:38;9.50;65.30
27940;DHT22;15275;51.716;14.324;2023-04-03T14:49:18;9.50;61.00
27940;DHT22;15275;51.716;14.324;2023-04-03T14:51:45;9.40;63.10
27940;DHT22;15275;51.716;14.324;2023-04-03T14:54:17;9.30;65.20
27940;DHT22;15275;51.716;14.324;2023-04-03T14:56:47;9.30;64.20
27940;DHT22;15275;51.716;14.324;2023-04-03T14:59:14;9.30;64.30
27940;DHT22;15275;51.716;14.324;2023-04-03T15:01:40;9.40;64.80
27940;DHT22;15275;51.716;14.324;2023-04-03T15:04:18;9.40;65.70
27940;DHT22;15275;51.716;14.324;2023-04-03T15:06:46;9.50;63.00
27940;DHT22;15275;51.716;14.324;2023-04-03T15:09:22;9.50;64.70
27940;DHT22;15275;51.716;14.324;2023-04-03T15:11:50;9.50;64.30
27940;DHT22;15275;51.716;14.324;2023-04-03T15:14:17;9.50;65.50
27940;DHT22;15275;51.716;14.324;2023-04-03T15:16:43;9.50;65.90
27940;DHT22;15275;51.716;14.324;2023-04-03T15:19:10;9.50;65.90
27940;DHT22;15275;51.716;14.324;2023-04-03T15:21:36;9.60;65.70
27940;DHT22;15275;51.716;14.324;2023-04-03T15:24:03;9.70;65.40
27940;DHT22;15275;51.716;14.324;2023-04-03T15:26:30;9.70;65.00
27940;DHT22;15275;51.716;14.324;2023-04-03T15:28:56;9.70;63.90
27940;DHT22;15275;51.716;14.324;2023-04-03T15:31:22;9.60;63.10
27940;DHT22;15275;51.716;14.324;2023-04-03T15:33:50;9.60;62.90
27940;DHT22;15275;51.716;14.324;2023-04-03T15:36:18;9.60;62.30
27940;DHT22;15275;51.716;14.324;2023-04-03T15:38:44;9.60;62.90
27940;DHT22;15275;51.716;14.324;2023-04-03T15:41:10;9.60;62.50
27940;DHT22;15275;51.716;14.324;2023-04-03T15:43:36;9.60;61.00
27940;DHT22;15275;51.716;14.324;2023-04-03T15:46:02;9.50;60.50
27940;DHT22;15275;51.716;14.324;2023-04-03T15:48:28;9.50;61.50
27940;DHT22;15275;51.716;14.324;2023-04-03T15:50:55;9.50;62.40
27940;DHT22;15275;51.716;14.324;2023-04-03T15:53:21;9.50;62.80
27940;DHT22;15275;51.716;14.324;2023-04-03T15:55:46;9.50;64.10
27940;DHT22;15275;51.716;14.324;2023-04-03T15:58:12;9.50;62.70
27940;DHT22;15275;51.716;14.324;2023-04-03T16:00:38;9.50;64.90
27940;DHT22;15275;51.716;14.324;2023-04-03T16:03:09;9.40;65.20
27940;DHT22;15275;51.716;14.324;2023-04-03T16:05:38;9.40;65.40
27940;DHT22;15275;51.716;14.324;2023-04-03T16:08:06;9.40;65.20
27940;DHT22;15275;51.716;14.324;2023-04-03T16:10:34;9.40;65.50
27940;DHT22;15275;51.716;14.324;2023-04-03T16:13:00;9.30;65.40
27940;DHT22;15275;51.716;14.324;2023-04-03T16:15:27;9.30;65.40
27940;DHT22;15275;51.716;14.324;2023-04-03T16:17:53;9.30;65.50
27940;DHT22;15275;51.716;14.324;2023-04-03T16:20:20;9.20;65.40
27940;DHT22;15275;51.716;14.324;2023-04-03T16:22:47;9.20;65.70
27940;DHT22;15275;51.716;14.324;2023-04-03T16:25:14;9.20;65.60
27940;DHT22;15275;51.716;14.324;2023-04-03T16:27:40;9.20;64.70
27940;DHT22;15275;51.716;14.324;2023-04-03T16:30:06;9.20;65.50
27940;DHT22;15275;51.716;14.324;2023-04-03T16:32:33;9.20;65.40
27940;DHT22;15275;51.716;14.324;2023-04-03T16:35:00;9.20;65.80
27940;DHT22;15275;51.716;14.324;2023-04-03T16:37:26;9.10;64.80
27940;DHT22;15275;51.716;14.324;2023-04-03T16:39:52;9.10;64.90
27940;DHT22;15275;51.716;14.324;2023-04-03T16:42:17;9.10;64.30
27940;DHT22;15275;51.716;14.324;2023-04-03T16:44:43;9.10;64.30
27940;DHT22;15275;51.716;14.324;2023-04-03T16:47:09;9.10;64.00
27940;DHT22;15275;51.716;14.324;2023-04-03T16:49:36;9.10;65.70
27940;DHT22;15275;51.716;14.324;2023-04-03T16:52:03;9.10;65.70
27940;DHT22;15275;51.716;14.324;2023-04-03T16:54:31;9.10;65.40
27940;DHT22;15275;51.716;14.324;2023-04-03T16:56:57;9.10;65.90
27940;DHT22;15275;51.716;14.324;2023-04-03T16:59:23;9.10;66.80
27940;DHT22;15275;51.716;14.324;2023-04-03T17:01:49;9.00;66.50
27940;DHT22;15275;51.716;14.324;2023-04-03T17:04:15;8.90;66.60
27940;DHT22;15275;51.716;14.324;2023-04-03T17:06:41;8.90;66.80
27940;DHT22;15275;51.716;14.324;2023-04-03T17:09:08;8.90;66.70
27940;DHT22;15275;51.716;14.324;2023-04-03T17:11:35;8.80;67.00
27940;DHT22;15275;51.716;14.324;2023-04-03T17:14:01;8.80;66.90
27940;DHT22;15275;51.716;14.324;2023-04-03T17:16:28;8.70;67.00
27940;DHT22;15275;51.716;14.324;2023-04-03T17:18:55;8.70;67.00
27940;DHT22;15275;51.716;14.324;2023-04-03T17:21:21;8.70;67.00
27940;DHT22;15275;51.716;14.324;2023-04-03T17:23:50;8.60;67.20